sensor_id;sensor_type;location;lat;lon;timestamp;pressure;altitude;pressure_sealevel;temperature;humidity
53546;BME280;39432;51.902;10.844;2023-05-02T00:00:11;99507.03;;;12.67;100.00
53546;BME280;39432;51.902;10.844;2023-05-02T00:02:41;99509.75;;;12.72;100.00
53546;BME280;39432;51.902;10.844;2023-05-02T00:05:12;99512.22;;;12.84;100.00
53546;BME280;39432;51.902;10.844;2023-05-02T00:07:42;99509.78;;;12.82;100.00
53546;BME280;39432;51.902;10.844;2023-05-02T00:10:14;99520.75;;;12.82;100.00
53546;BME280;39432;51.902;10.844;2023-05-02T00:12:44;99513.63;;;12.86;100.00
53546;BME280;39432;51.902;10.844;2023-05-02T00:15:14;99509.75;;;12.72;100.00
53546;BME280;39432;51.902;10.844;2023-05-02T00:17:43;99512.50;;;12.82;100.00
53546;BME280;39432;51.902;10.844;2023-05-02T00:20:13;99511.94;;;12.90;100.00
53546;BME280;39432;51.902;10.844;2023-05-02T00:22:43;99507.84;;;12.73;100.00
53546;BME280;39432;51.902;10.844;2023-05-02T00:25:15;99498.78;;;12.72;100.00
53546;BME280;39432;51.902;10.844;2023-05-02T00:27:45;99505.09;;;12.83;100.00
53546;BME280;39432;51.902;10.844;2023-05-02T00:30:17;99500.16;;;12.70;100.00
53546;BME280;39432;51.902;10.844;2023-05-02T00:32:47;99494.69;;;12.70;100.00
53546;BME280;39432;51.902;10.844;2023-05-02T00:35:17;99498.78;;;12.57;100.00
53546;BME280;39432;51.902;10.844;2023-05-02T00:37:47;99501.50;;;12.36;100.00
53546;BME280;39432;51.902;10.844;2023-05-02T00:40:19;99496.56;;;12.44;100.00
53546;BME280;39432;51.902;10.844;2023-05-02T00:42:49;99498.19;;;12.24;100.00
53546;BME280;39432;51.902;10.844;2023-05-02T00:45:19;99508.63;;;12.27;100.00
53546;BME280;39432;51.902;10.844;2023-05-02T00:47:49;99516.34;;;12.56;100.00
53546;BME280;39432;51.902;10.844;2023-05-02T00:50:19;99526.75;;;12.38;100.00
53546;BME280;39432;51.902;10.844;2023-05-02T00:52:49;99521.22;;;12.23;100.00
53546;BME280;39432;51.902;10.844;2023-05-02T00:55:21;99530.47;;;11.97;100.00
53546;BME280;39432;51.902;10.844;2023-05-02T00:57:51;99532.69;;;12.05;100.00
53546;BME280;39432;51.902;10.844;2023-05-02T01:00:26;99536.84;;;12.18;100.00
53546;BME280;39432;51.902;10.844;2023-05-02T01:03:04;99529.91;;;11.90;100.00
53546;BME280;39432;51.902;10.844;2023-05-02T01:05:44;99535.97;;;12.07;100.00
53546;BME280;39432;51.902;10.844;2023-05-02T01:08:20;99526.88;;;11.91;100.00
53546;BME280;39432;51.902;10.844;2023-05-02T01:11:02;99534.56;;;11.89;100.00
53546;BME280;39432;51.902;10.844;2023-05-02T01:13:34;99534.66;;;11.62;100.00
53546;BME280;39432;51.902;10.844;2023-05-02T01:16:06;99526.78;;;11.71;100.00
53546;BME280;39432;51.902;10.844;2023-05-02T01:18:40;99523.44;;;11.64;100.00
53546;BME280;39432;51.902;10.844;2023-05-02T01:21:11;99528.00;;;11.48;100.00
53546;BME280;39432;51.902;10.844;2023-05-02T01:23:47;99537.97;;;11.64;100.00
53546;BME280;39432;51.902;10.844;2023-05-02T01:26:33;99528.66;;;11.65;100.00
53546;BME280;39432;51.902;10.844;2023-05-02T01:29:07;99542.00;;;11.51;100.00
53546;BME280;39432;51.902;10.844;2023-05-02T01:31:40;99532.16;;;11.50;100.00
53546;BME280;39432;51.902;10.844;2023-05-02T01:34:11;99540.59;;;11.44;100.00
53546;BME280;39432;51.902;10.844;2023-05-02T01:36:43;99537.59;;;11.45;100.00
53546;BME280;39432;51.902;10.844;2023-05-02T01:39:18;99542.22;;;11.40;100.00
53546;BME280;39432;51.902;10.844;2023-05-02T01:41:49;99538.69;;;11.44;100.00
53546;BME280;39432;51.902;10.844;2023-05-02T01:44:23;99540.56;;;11.39;100.00
53546;BME280;39432;51.902;10.844;2023-05-02T01:46:55;99549.31;;;11.35;100.00
53546;BME280;39432;51.902;10.844;2023-05-02T01:49:26;99556.41;;;11.31;100.00
53546;BME280;39432;51.902;10.844;2023-05-02T01:52:01;99558.50;;;11.19;100.00
53546;BME280;39432;51.902;10.844;2023-05-02T01:54:34;99568.47;;;11.35;100.00
53546;BME280;39432;51.902;10.844;2023-05-02T01:57:06;99565.84;;;11.51;100.00
53546;BME280;39432;51.902;10.844;2023-05-02T01:59:40;99568.03;;;11.49;100.00
53546;BME280;39432;51.902;10.844;2023-05-02T02:02:13;99567.56;;;11.62;100.00
53546;BME280;39432;51.902;10.844;2023-05-02T02:04:46;99571.41;;;11.61;100.00
53546;BME280;39432;51.902;10.844;2023-05-02T02:07:17;99580.03;;;11.43;100.00
53546;BME280;39432;51.902;10.844;2023-05-02T02:09:46;99580.56;;;11.40;100.00
53546;BME280;39432;51.902;10.844;2023-05-02T02:12:22;99580.69;;;11.55;100.00
53546;BME280;39432;51.902;10.844;2023-05-02T02:15:02;99579.41;;;11.73;100.00
53546;BME280;39432;51.902;10.844;2023-05-02T02:17:37;99578.16;;;11.96;100.00
53546;BME280;39432;51.902;10.844;2023-05-02T02:20:10;99575.72;;;11.94;100.00
53546;BME280;39432;51.902;10.844;2023-05-02T02:22:42;99568.75;;;11.76;100.00
53546;BME280;39432;51.902;10.844;2023-05-02T02:25:14;99573.75;;;11.90;100.00
53546;BME280;39432;51.902;10.844;2023-05-02T02:27:44;99574.22;;;11.76;100.00
53546;BME280;39432;51.902;10.844;2023-05-02T02:30:18;99577.28;;;11.85;100.00
53546;BME280;39432;51.902;10.844;2023-05-02T02:32:48;99574.75;;;11.73;100.00
53546;BME280;39432;51.902;10.844;2023-05-02T02:35:18;99583.41;;;11.55;100.00
53546;BME280;39432;51.902;10.844;2023-05-02T02:37:53;99589.91;;;11.44;100.00
53546;BME280;39432;51.902;10.844;2023-05-02T02:40:30;99583.78;;;11.31;100.00
53546;BME280;39432;51.902;10.844;2023-05-02T02:43:07;99584.84;;;11.25;100.00
53546;BME280;39432;51.902;10.844;2023-05-02T02:45:47;99590.41;;;11.35;100.00
53546;BME280;39432;51.902;10.844;2023-05-02T02:48:25;99586.88;;;11.40;100.00
53546;BME280;39432;51.902;10.844;2023-05-02T02:51:07;99585.66;;;11.63;100.00
53546;BME280;39432;51.902;10.844;2023-05-02T02:53:48;99580.41;;;11.56;100.00
53546;BME280;39432;51.902;10.844;2023-05-02T02:56:25;99585.84;;;11.14;100.00
53546;BME280;39432;51.902;10.844;2023-05-02T02:58:57;99583.78;;;11.31;100.00
53546;BME280;39432;51.902;10.844;2023-05-02T03:01:33;99589.50;;;11.25;100.00
53546;BME280;39432;51.902;10.844;2023-05-02T03:04:06;99589.16;;;11.58;100.00
53546;BME280;39432;51.902;10.844;2023-05-02T03:06:37;99591.66;;;11.60;100.00
53546;BME280;39432;51.902;10.844;2023-05-02T03:09:13;99595.38;;;11.39;100.00
53546;BME280;39432;51.902;10.844;2023-05-02T03:11:46;99589.41;;;11.52;100.00
53546;BME280;39432;51.902;10.844;2023-05-02T03:14:17;99594.41;;;11.60;100.00
53546;BME280;39432;51.902;10.844;2023-05-02T03:16:49;99609.22;;;11.64;100.00
53546;BME280;39432;51.902;10.844;2023-05-02T03:19:19;99600.91;;;11.49;100.00
53546;BME280;39432;51.902;10.844;2023-05-02T03:21:49;99605.47;;;11.01;100.00
53546;BME280;39432;51.902;10.844;2023-05-02T03:24:19;99619.63;;;10.93;100.00
53546;BME280;39432;51.902;10.844;2023-05-02T03:26:53;99628.31;;;10.85;100.00
53546;BME280;39432;51.902;10.844;2023-05-02T03:29:31;99634.72;;;10.95;100.00
53546;BME280;39432;51.902;10.844;2023-05-02T03:32:03;99632.84;;;11.01;100.00
53546;BME280;39432;51.902;10.844;2023-05-02T03:34:35;99626.75;;;10.94;100.00
53546;BME280;39432;51.902;10.844;2023-05-02T03:37:04;99638.06;;;11.02;100.00
53546;BME280;39432;51.902;10.844;2023-05-02T03:39:34;99638.94;;;11.08;100.00
53546;BME280;39432;51.902;10.844;2023-05-02T03:42:04;99649.81;;;11.03;100.00
53546;BME280;39432;51.902;10.844;2023-05-02T03:44:34;99644.41;;;11.08;100.00
53546;BME280;39432;51.902;10.844;2023-05-02T03:47:06;99640.53;;;11.04;100.00
53546;BME280;39432;51.902;10.844;2023-05-02T03:49:39;99643.94;;;11.16;100.00
53546;BME280;39432;51.902;10.844;2023-05-02T03:52:10;99650.34;;;11.27;100.00
53546;BME280;39432;51.902;10.844;2023-05-02T03:54:40;99644.84;;;10.95;100.00
53546;BME280;39432;51.902;10.844;2023-05-02T03:57:10;99646.03;;;11.09;100.00
53546;BME280;39432;51.902;10.844;2023-05-02T03:59:40;99643.22;;;11.31;100.00
53546;BME280;39432;51.902;10.844;2023-05-02T04:02:23;99642.56;;;11.51;100.00
53546;BME280;39432;51.902;10.844;2023-05-02T04:04:53;99651.66;;;11.24;100.00
53546;BME280;39432;51.902;10.844;2023-05-02T04:07:23;99659.97;;;11.34;100.00
53546;BME280;39432;51.902;10.844;2023-05-02T04:09:59;99663.53;;;11.35;100.00
53546;BME280;39432;51.902;10.844;2023-05-02T04:12:34;99675.66;;;11.12;100.00
53546;BME280;39432;51.902;10.844;2023-05-02T04:15:04;99679.72;;;11.09;100.00
53546;BME280;39432;51.902;10.844;2023-05-02T04:17:37;99685.94;;;11.00;100.00
53546;BME280;39432;51.902;10.844;2023-05-02T04:20:09;99693.69;;;11.08;100.00
53546;BME280;39432;51.902;10.844;2023-05-02T04:22:43;99686.28;;;11.35;100.00
53546;BME280;39432;51.902;10.844;2023-05-02T04:25:14;99688.00;;;11.47;100.00
53546;BME280;39432;51.902;10.844;2023-05-02T04:27:47;99695.53;;;11.29;100.00
53546;BME280;39432;51.902;10.844;2023-05-02T04:30:20;99700.56;;;11.43;100.00
53546;BME280;39432;51.902;10.844;2023-05-02T04:33:01;99712.19;;;11.23;100.00
53546;BME280;39432;51.902;10.844;2023-05-02T04:35:34;99717.53;;;11.40;100.00
53546;BME280;39432;51.902;10.844;2023-05-02T04:38:04;99719.41;;;11.34;100.00
53546;BME280;39432;51.902;10.844;2023-05-02T04:40:34;99727.00;;;11.59;100.00
53546;BME280;39432;51.902;10.844;2023-05-02T04:43:06;99725.53;;;11.46;100.00
53546;BME280;39432;51.902;10.844;2023-05-02T04:45:41;99723.84;;;11.72;100.00
53546;BME280;39432;51.902;10.844;2023-05-02T04:48:21;99721.03;;;11.62;100.00
53546;BME280;39432;51.902;10.844;2023-05-02T04:50:52;99720.66;;;11.53;100.00
53546;BME280;39432;51.902;10.844;2023-05-02T04:53:22;99733.72;;;11.73;100.00
53546;BME280;39432;51.902;10.844;2023-05-02T04:55:55;99735.63;;;11.41;100.00
53546;BME280;39432;51.902;10.844;2023-05-02T04:58:25;99737.47;;;11.62;100.00
53546;BME280;39432;51.902;10.844;2023-05-02T05:00:59;99741.09;;;11.41;100.00
53546;BME280;39432;51.902;10.844;2023-05-02T05:03:31;99749.38;;;11.46;100.00
53546;BME280;39432;51.902;10.844;2023-05-02T05:06:01;99747.97;;;11.70;100.00
53546;BME280;39432;51.902;10.844;2023-05-02T05:08:32;99748.94;;;11.59;100.00
53546;BME280;39432;51.902;10.844;2023-05-02T05:11:03;99761.59;;;11.33;100.00
53546;BME280;39432;51.902;10.844;2023-05-02T05:13:34;99764.16;;;11.45;100.00
53546;BME280;39432;51.902;10.844;2023-05-02T05:16:05;99763.94;;;11.51;100.00
53546;BME280;39432;51.902;10.844;2023-05-02T05:18:38;99770.03;;;11.58;100.00
53546;BME280;39432;51.902;10.844;2023-05-02T05:21:11;99771.84;;;11.48;100.00
53546;BME280;39432;51.902;10.844;2023-05-02T05:23:41;99776.78;;;11.46;100.00
53546;BME280;39432;51.902;10.844;2023-05-02T05:26:21;99777.19;;;11.59;100.00
53546;BME280;39432;51.902;10.844;2023-05-02T05:28:53;99783.13;;;11.51;100.00
53546;BME280;39432;51.902;10.844;2023-05-02T05:31:25;99794.34;;;11.50;100.00
53546;BME280;39432;51.902;10.844;2023-05-02T05:34:00;99797.19;;;11.60;100.00
53546;BME280;39432;51.902;10.844;2023-05-02T05:36:30;99799.00;;;11.49;100.00
53546;BME280;39432;51.902;10.844;2023-05-02T05:39:01;99804.69;;;11.43;100.00
53546;BME280;39432;51.902;10.844;2023-05-02T05:41:32;99800.72;;;11.28;100.00
53546;BME280;39432;51.902;10.844;2023-05-02T05:44:07;99807.00;;;11.29;100.00
53546;BME280;39432;51.902;10.844;2023-05-02T05:46:37;99821.66;;;11.40;100.00
53546;BME280;39432;51.902;10.844;2023-05-02T05:49:12;99821.66;;;11.40;100.00
53546;BME280;39432;51.902;10.844;2023-05-02T05:51:42;99822.22;;;11.69;100.00
53546;BME280;39432;51.902;10.844;2023-05-02T05:54:15;99824.59;;;11.60;100.00
53546;BME280;39432;51.902;10.844;2023-05-02T05:56:45;99822.31;;;11.52;100.00
53546;BME280;39432;51.902;10.844;2023-05-02T05:59:18;99828.63;;;11.79;100.00
53546;BME280;39432;51.902;10.844;2023-05-02T06:01:48;99829.66;;;11.73;100.00
53546;BME280;39432;51.902;10.844;2023-05-02T06:04:22;99831.25;;;11.42;100.00
53546;BME280;39432;51.902;10.844;2023-05-02T06:06:52;99843.16;;;11.53;100.00
53546;BME280;39432;51.902;10.844;2023-05-02T06:09:22;99842.38;;;11.57;100.00
53546;BME280;39432;51.902;10.844;2023-05-02T06:11:53;99842.16;;;11.64;100.00
53546;BME280;39432;51.902;10.844;2023-05-02T06:14:22;99854.31;;;11.73;100.00
53546;BME280;39432;51.902;10.844;2023-05-02T06:16:52;99846.38;;;11.99;100.00
53546;BME280;39432;51.902;10.844;2023-05-02T06:19:25;99850.28;;;12.08;100.00
53546;BME280;39432;51.902;10.844;2023-05-02T06:21:55;99855.16;;;11.74;100.00
53546;BME280;39432;51.902;10.844;2023-05-02T06:24:24;99857.34;;;11.72;100.00
53546;BME280;39432;51.902;10.844;2023-05-02T06:26:54;99854.38;;;11.78;100.00
53546;BME280;39432;51.902;10.844;2023-05-02T06:29:24;99860.13;;;11.77;100.00
53546;BME280;39432;51.902;10.844;2023-05-02T06:31:54;99864.69;;;11.93;100.00
53546;BME280;39432;51.902;10.844;2023-05-02T06:34:27;99864.47;;;11.73;100.00
53546;BME280;39432;51.902;10.844;2023-05-02T06:36:56;99877.69;;;12.08;100.00
53546;BME280;39432;51.902;10.844;2023-05-02T06:39:26;99869.91;;;11.95;100.00
53546;BME280;39432;51.902;10.844;2023-05-02T06:41:56;99882.47;;;11.91;100.00
53546;BME280;39432;51.902;10.844;2023-05-02T06:44:27;99888.59;;;11.71;100.00
53546;BME280;39432;51.902;10.844;2023-05-02T06:46:57;99892.84;;;11.83;100.00
53546;BME280;39432;51.902;10.844;2023-05-02T06:49:29;99912.91;;;12.16;100.00
53546;BME280;39432;51.902;10.844;2023-05-02T06:51:59;99912.50;;;11.80;100.00
53546;BME280;39432;51.902;10.844;2023-05-02T06:54:29;99919.84;;;11.97;100.00
53546;BME280;39432;51.902;10.844;2023-05-02T06:56:59;99927.13;;;11.64;100.00
53546;BME280;39432;51.902;10.844;2023-05-02T06:59:28;99947.81;;;11.50;100.00
53546;BME280;39432;51.902;10.844;2023-05-02T07:01:58;99957.88;;;11.66;100.00
53546;BME280;39432;51.902;10.844;2023-05-02T07:04:33;99967.19;;;11.65;100.00
53546;BME280;39432;51.902;10.844;2023-05-02T07:07:03;99971.03;;;11.69;100.00
53546;BME280;39432;51.902;10.844;2023-05-02T07:09:33;99976.72;;;11.41;100.00
53546;BME280;39432;51.902;10.844;2023-05-02T07:12:03;99986.22;;;11.33;100.00
53546;BME280;39432;51.902;10.844;2023-05-02T07:14:33;99985.28;;;11.66;100.00
53546;BME280;39432;51.902;10.844;2023-05-02T07:17:03;99988.66;;;11.51;100.00
53546;BME280;39432;51.902;10.844;2023-05-02T07:19:35;99986.72;;;11.74;100.00
53546;BME280;39432;51.902;10.844;2023-05-02T07:22:05;99993.94;;;12.02;100.00
53546;BME280;39432;51.902;10.844;2023-05-02T07:24:39;99990.75;;;12.37;100.00
53546;BME280;39432;51.902;10.844;2023-05-02T07:27:10;99985.88;;;12.17;100.00
53546;BME280;39432;51.902;10.844;2023-05-02T07:29:39;99989.81;;;11.99;100.00
53546;BME280;39432;51.902;10.844;2023-05-02T07:32:10;99984.44;;;12.36;100.00
53546;BME280;39432;51.902;10.844;2023-05-02T07:34:43;99991.72;;;12.58;100.00
53546;BME280;39432;51.902;10.844;2023-05-02T07:37:12;99991.19;;;12.56;100.00
53546;BME280;39432;51.902;10.844;2023-05-02T07:39:42;99976.75;;;12.38;100.00
53546;BME280;39432;51.902;10.844;2023-05-02T07:42:12;99989.84;;;12.58;100.00
53546;BME280;39432;51.902;10.844;2023-05-02T07:44:42;99970.31;;;12.55;100.00
53546;BME280;39432;51.902;10.844;2023-05-02T07:47:11;99981.38;;;12.06;100.00
53546;BME280;39432;51.902;10.844;2023-05-02T07:49:44;99979.78;;;11.66;100.00
53546;BME280;39432;51.902;10.844;2023-05-02T07:52:13;99993.88;;;11.53;100.00
53546;BME280;39432;51.902;10.844;2023-05-02T07:54:43;99997.66;;;11.30;100.00
53546;BME280;39432;51.902;10.844;2023-05-02T07:57:13;100012.28;;;11.57;100.00
53546;BME280;39432;51.902;10.844;2023-05-02T07:59:43;100025.03;;;11.47;100.00
53546;BME280;39432;51.902;10.844;2023-05-02T08:02:13;100028.00;;;11.23;100.00
53546;BME280;39432;51.902;10.844;2023-05-02T08:04:48;100046.25;;;11.01;100.00
53546;BME280;39432;51.902;10.844;2023-05-02T08:07:18;100057.47;;;10.82;100.00
53546;BME280;39432;51.902;10.844;2023-05-02T08:09:48;100075.44;;;10.62;100.00
53546;BME280;39432;51.902;10.844;2023-05-02T08:12:17;100081.47;;;10.47;100.00
53546;BME280;39432;51.902;10.844;2023-05-02T08:14:47;100086.34;;;10.45;100.00
53546;BME280;39432;51.902;10.844;2023-05-02T08:17:17;100101.34;;;10.02;100.00
53546;BME280;39432;51.902;10.844;2023-05-02T08:19:49;100120.69;;;10.12;100.00
53546;BME280;39432;51.902;10.844;2023-05-02T08:22:19;100125.75;;;9.80;100.00
53546;BME280;39432;51.902;10.844;2023-05-02T08:24:49;100136.81;;;9.73;100.00
53546;BME280;39432;51.902;10.844;2023-05-02T08:27:18;100152.97;;;9.63;100.00
53546;BME280;39432;51.902;10.844;2023-05-02T08:29:48;100159.63;;;9.67;100.00
53546;BME280;39432;51.902;10.844;2023-05-02T08:32:18;100158.50;;;9.92;100.00
53546;BME280;39432;51.902;10.844;2023-05-02T08:34:53;100157.78;;;10.08;100.00
53546;BME280;39432;51.902;10.844;2023-05-02T08:37:23;100153.03;;;9.92;100.00
53546;BME280;39432;51.902;10.844;2023-05-02T08:39:53;100161.84;;;9.70;100.00
53546;BME280;39432;51.902;10.844;2023-05-02T08:42:22;100153.44;;;9.84;100.00
53546;BME280;39432;51.902;10.844;2023-05-02T08:44:53;100165.09;;;9.67;100.00
53546;BME280;39432;51.902;10.844;2023-05-02T08:47:24;100165.53;;;9.64;100.00
53546;BME280;39432;51.902;10.844;2023-05-02T08:49:58;100171.59;;;9.90;100.00
53546;BME280;39432;51.902;10.844;2023-05-02T08:52:30;100176.22;;;10.01;100.00
53546;BME280;39432;51.902;10.844;2023-05-02T08:55:01;100174.66;;;10.05;100.00
53546;BME280;39432;51.902;10.844;2023-05-02T08:57:31;100177.91;;;9.90;100.00
53546;BME280;39432;51.902;10.844;2023-05-02T09:00:01;100191.22;;;9.75;100.00
53546;BME280;39432;51.902;10.844;2023-05-02T09:02:44;100187.75;;;9.91;100.00
53546;BME280;39432;51.902;10.844;2023-05-02T09:05:22;100198.31;;;9.88;100.00
53546;BME280;39432;51.902;10.844;2023-05-02T09:07:53;100192.09;;;10.16;100.00
53546;BME280;39432;51.902;10.844;2023-05-02T09:10:24;100192.84;;;10.11;100.00
53546;BME280;39432;51.902;10.844;2023-05-02T09:12:56;100196.16;;;10.13;100.00
53546;BME280;39432;51.902;10.844;2023-05-02T09:15:27;100191.66;;;10.31;100.00
53546;BME280;39432;51.902;10.844;2023-05-02T09:17:56;100190.59;;;10.60;100.00
53546;BME280;39432;51.902;10.844;2023-05-02T09:20:39;100193.94;;;10.62;100.00
53546;BME280;39432;51.902;10.844;2023-05-02T09:23:09;100191.28;;;10.96;100.00
53546;BME280;39432;51.902;10.844;2023-05-02T09:25:39;100193.28;;;10.20;100.00
53546;BME280;39432;51.902;10.844;2023-05-02T09:28:09;100200.44;;;10.33;100.00
53546;BME280;39432;51.902;10.844;2023-05-02T09:30:39;100191.13;;;11.02;100.00
53546;BME280;39432;51.902;10.844;2023-05-02T09:33:09;100192.19;;;10.85;100.00
53546;BME280;39432;51.902;10.844;2023-05-02T09:35:52;100202.78;;;10.81;100.00
53546;BME280;39432;51.902;10.844;2023-05-02T09:38:22;100203.53;;;10.36;100.00
53546;BME280;39432;51.902;10.844;2023-05-02T09:40:52;100208.25;;;10.52;100.00
53546;BME280;39432;51.902;10.844;2023-05-02T09:43:23;100206.34;;;10.53;100.00
53546;BME280;39432;51.902;10.844;2023-05-02T09:45:56;100208.31;;;10.69;100.00
53546;BME280;39432;51.902;10.844;2023-05-02T09:48:27;100200.88;;;10.81;100.00
53546;BME280;39432;51.902;10.844;2023-05-02T09:51:00;100202.94;;;10.74;100.00
53546;BME280;39432;51.902;10.844;2023-05-02T09:53:30;100205.97;;;10.90;100.00
53546;BME280;39432;51.902;10.844;2023-05-02T09:56:02;100207.44;;;10.40;100.00
53546;BME280;39432;51.902;10.844;2023-05-02T09:58:32;100214.22;;;10.38;100.00
53546;BME280;39432;51.902;10.844;2023-05-02T10:01:02;100213.66;;;10.93;100.00
53546;BME280;39432;51.902;10.844;2023-05-02T10:03:36;100208.44;;;10.63;100.00
53546;BME280;39432;51.902;10.844;2023-05-02T10:06:09;100209.53;;;10.62;100.00
53546;BME280;39432;51.902;10.844;2023-05-02T10:08:38;100208.19;;;10.64;100.00
53546;BME280;39432;51.902;10.844;2023-05-02T10:11:12;100204.88;;;10.62;100.00
53546;BME280;39432;51.902;10.844;2023-05-02T10:13:45;100210.50;;;10.55;100.00
53546;BME280;39432;51.902;10.844;2023-05-02T10:16:19;100218.25;;;10.47;100.00
53546;BME280;39432;51.902;10.844;2023-05-02T10:18:57;100209.53;;;10.62;100.00
53546;BME280;39432;51.902;10.844;2023-05-02T10:21:35;100212.06;;;11.08;100.00
53546;BME280;39432;51.902;10.844;2023-05-02T10:24:05;100210.94;;;10.93;100.00
53546;BME280;39432;51.902;10.844;2023-05-02T10:26:35;100216.69;;;10.51;100.00
53546;BME280;39432;51.902;10.844;2023-05-02T10:29:05;100210.63;;;10.89;100.00
53546;BME280;39432;51.902;10.844;2023-05-02T10:31:36;100206.63;;;10.97;100.00
53546;BME280;39432;51.902;10.844;2023-05-02T10:34:10;100200.78;;;10.76;100.00
53546;BME280;39432;51.902;10.844;2023-05-02T10:36:43;100205.66;;;11.65;100.00
53546;BME280;39432;51.902;10.844;2023-05-02T10:39:13;100197.41;;;11.65;100.00
53546;BME280;39432;51.902;10.844;2023-05-02T10:41:43;100191.09;;;11.31;100.00
53546;BME280;39432;51.902;10.844;2023-05-02T10:44:13;100195.22;;;11.00;100.00
53546;BME280;39432;51.902;10.844;2023-05-02T10:46:43;100196.72;;;10.79;100.00
53546;BME280;39432;51.902;10.844;2023-05-02T10:49:13;100197.97;;;10.71;100.00
53546;BME280;39432;51.902;10.844;2023-05-02T10:51:46;100195.91;;;11.41;100.00
53546;BME280;39432;51.902;10.844;2023-05-02T10:54:22;100198.72;;;11.12;100.00
53546;BME280;39432;51.902;10.844;2023-05-02T10:57:06;100189.16;;;11.31;100.00
53546;BME280;39432;51.902;10.844;2023-05-02T10:59:38;100188.69;;;11.51;100.00
53546;BME280;39432;51.902;10.844;2023-05-02T11:05:09;100199.88;;;11.16;100.00
53546;BME280;39432;51.902;10.844;2023-05-02T11:07:41;100205.81;;;10.96;100.00
53546;BME280;39432;51.902;10.844;2023-05-02T11:10:24;100201.44;;;11.12;100.00
53546;BME280;39432;51.902;10.844;2023-05-02T11:12:56;100202.56;;;11.45;100.00
53546;BME280;39432;51.902;10.844;2023-05-02T11:15:54;100205.03;;;11.46;100.00
53546;BME280;39432;51.902;10.844;2023-05-02T11:18:25;100207.78;;;11.63;100.00
53546;BME280;39432;51.902;10.844;2023-05-02T11:21:24;100207.56;;;11.81;100.00
53546;BME280;39432;51.902;10.844;2023-05-02T11:30:12;100200.91;;;11.60;100.00
53546;BME280;39432;51.902;10.844;2023-05-02T11:33:15;100212.69;;;11.27;100.00
53546;BME280;39432;51.902;10.844;2023-05-02T11:35:46;100214.00;;;11.75;100.00
53546;BME280;39432;51.902;10.844;2023-05-02T11:38:19;100214.69;;;11.49;100.00
53546;BME280;39432;51.902;10.844;2023-05-02T11:40:51;100212.19;;;11.64;100.00
53546;BME280;39432;51.902;10.844;2023-05-02T11:43:22;100222.19;;;11.70;100.00
53546;BME280;39432;51.902;10.844;2023-05-02T11:46:00;100215.16;;;11.79;100.00
53546;BME280;39432;51.902;10.844;2023-05-02T11:48:32;100222.00;;;11.77;100.00
53546;BME280;39432;51.902;10.844;2023-05-02T11:51:02;100222.22;;;11.75;100.00
53546;BME280;39432;51.902;10.844;2023-05-02T11:53:33;100230.31;;;11.65;100.00
53546;BME280;39432;51.902;10.844;2023-05-02T11:56:09;100235.03;;;11.07;100.00
53546;BME280;39432;51.902;10.844;2023-05-02T11:58:39;100241.22;;;11.31;100.00
53546;BME280;39432;51.902;10.844;2023-05-02T12:01:13;100240.94;;;11.45;100.00
53546;BME280;39432;51.902;10.844;2023-05-02T12:03:44;100236.00;;;11.47;100.00
53546;BME280;39432;51.902;10.844;2023-05-02T12:06:16;100250.66;;;10.78;100.00
53546;BME280;39432;51.902;10.844;2023-05-02T12:08:47;100249.97;;;11.00;100.00
53546;BME280;39432;51.902;10.844;2023-05-02T12:11:22;100262.56;;;10.72;100.00
53546;BME280;39432;51.902;10.844;2023-05-02T12:13:52;100249.44;;;11.31;100.00
53546;BME280;39432;51.902;10.844;2023-05-02T12:16:24;100259.13;;;11.05;100.00
53546;BME280;39432;51.902;10.844;2023-05-02T12:18:55;100257.94;;;11.01;100.00
53546;BME280;39432;51.902;10.844;2023-05-02T12:21:27;100274.31;;;10.85;100.00
53546;BME280;39432;51.902;10.844;2023-05-02T12:23:59;100269.59;;;11.25;100.00
53546;BME280;39432;51.902;10.844;2023-05-02T12:26:29;100278.44;;;10.87;100.00
53546;BME280;39432;51.902;10.844;2023-05-02T12:28:59;100270.28;;;10.75;100.00
53546;BME280;39432;51.902;10.844;2023-05-02T12:31:32;100276.38;;;11.06;100.00
53546;BME280;39432;51.902;10.844;2023-05-02T12:34:02;100277.91;;;11.30;100.00
53546;BME280;39432;51.902;10.844;2023-05-02T12:36:32;100280.25;;;11.22;100.00
53546;BME280;39432;51.902;10.844;2023-05-02T12:39:03;100281.06;;;11.22;100.00
53546;BME280;39432;51.902;10.844;2023-05-02T12:41:34;100280.75;;;11.35;100.00
53546;BME280;39432;51.902;10.844;2023-05-02T12:44:05;100280.78;;;11.69;100.00
53546;BME280;39432;51.902;10.844;2023-05-02T12:46:57;100281.38;;;11.26;100.00
53546;BME280;39432;51.902;10.844;2023-05-02T12:49:27;100293.47;;;11.13;100.00
53546;BME280;39432;51.902;10.844;2023-05-02T12:51:57;100294.66;;;11.46;100.00
53546;BME280;39432;51.902;10.844;2023-05-02T12:54:27;100294.25;;;10.97;100.00
53546;BME280;39432;51.902;10.844;2023-05-02T12:56:58;100299.03;;;11.47;100.00
53546;BME280;39432;51.902;10.844;2023-05-02T12:59:30;100295.81;;;11.50;100.00
53546;BME280;39432;51.902;10.844;2023-05-02T13:02:03;100302.22;;;11.55;100.00
53546;BME280;39432;51.902;10.844;2023-05-02T13:04:33;100302.38;;;11.49;100.00
53546;BME280;39432;51.902;10.844;2023-05-02T13:07:03;100293.28;;;11.60;100.00
53546;BME280;39432;51.902;10.844;2023-05-02T13:09:33;100297.50;;;11.68;100.00